Indian Village, Louisiana
Current Conditions -  °F | °C
As of 1:15 PM on Friday 21 Nov 2014 (Local Time) from KRSN Reporting Station
Overcast Overcast  
Wind Chill: 63°   Ceiling: 6500
Heat Index: 63°   Visibility: 10mi
Dew Point: 50°   Wind: 7mph
Humidity: 63%   Direction: 160°SSE
Pressure: 30.24"   Gusts: NA
Location:  32.5064°N, 92.3457°W
Report Text: KRSN 211915Z AUTO 16006KT 10SM OVC065 17/10 A3024 RMK AO2 T01730101
Loading
Personal Weather Stations






























Interactive Weather Map New forecast layout! Learn more

10-Day Weather Forecast

Advertisements
Track Severe Weather on mobile